sensor_id;sensor_type;location;lat;lon;timestamp;temperature;humidity
7842;DHT22;3966;51.052;13.820;2023-04-25T00:00:51;10.10;99.90
7842;DHT22;3966;51.052;13.820;2023-04-25T00:03:17;10.10;99.90
7842;DHT22;3966;51.052;13.820;2023-04-25T00:05:43;10.10;99.90
7842;DHT22;3966;51.052;13.820;2023-04-25T00:08:10;10.20;99.90
7842;DHT22;3966;51.052;13.820;2023-04-25T00:10:36;10.20;99.90
7842;DHT22;3966;51.052;13.820;2023-04-25T00:13:02;10.20;99.90
7842;DHT22;3966;51.052;13.820;2023-04-25T00:15:28;10.20;99.90
7842;DHT22;3966;51.052;13.820;2023-04-25T00:17:56;10.30;99.90
7842;DHT22;3966;51.052;13.820;2023-04-25T00:20:22;10.30;99.90
7842;DHT22;3966;51.052;13.820;2023-04-25T00:22:49;10.30;99.90
7842;DHT22;3966;51.052;13.820;2023-04-25T00:25:14;10.30;99.90
7842;DHT22;3966;51.052;13.820;2023-04-25T00:27:40;10.30;99.90
7842;DHT22;3966;51.052;13.820;2023-04-25T00:30:07;10.40;99.90
7842;DHT22;3966;51.052;13.820;2023-04-25T00:32:33;10.40;99.90
7842;DHT22;3966;51.052;13.820;2023-04-25T00:34:59;10.30;99.90
7842;DHT22;3966;51.052;13.820;2023-04-25T00:37:24;10.10;99.90
7842;DHT22;3966;51.052;13.820;2023-04-25T00:39:50;10.10;99.90
7842;DHT22;3966;51.052;13.820;2023-04-25T00:42:16;10.10;99.90
7842;DHT22;3966;51.052;13.820;2023-04-25T00:44:43;10.10;99.90
7842;DHT22;3966;51.052;13.820;2023-04-25T00:47:08;10.00;99.90
7842;DHT22;3966;51.052;13.820;2023-04-25T00:49:36;10.10;99.90
7842;DHT22;3966;51.052;13.820;2023-04-25T00:52:01;10.10;99.90
7842;DHT22;3966;51.052;13.820;2023-04-25T00:54:27;10.10;99.90
7842;DHT22;3966;51.052;13.820;2023-04-25T00:56:53;10.00;99.90
7842;DHT22;3966;51.052;13.820;2023-04-25T00:59:19;10.00;99.90
7842;DHT22;3966;51.052;13.820;2023-04-25T01:01:46;10.00;99.90
7842;DHT22;3966;51.052;13.820;2023-04-25T01:04:12;9.90;99.90
7842;DHT22;3966;51.052;13.820;2023-04-25T01:06:38;9.80;99.90
7842;DHT22;3966;51.052;13.820;2023-04-25T01:09:04;9.80;99.90
7842;DHT22;3966;51.052;13.820;2023-04-25T01:11:30;9.70;99.90
7842;DHT22;3966;51.052;13.820;2023-04-25T01:13:56;9.70;99.90
7842;DHT22;3966;51.052;13.820;2023-04-25T01:16:23;9.60;99.90
7842;DHT22;3966;51.052;13.820;2023-04-25T01:18:49;9.60;99.90
7842;DHT22;3966;51.052;13.820;2023-04-25T01:21:17;9.60;99.90
7842;DHT22;3966;51.052;13.820;2023-04-25T01:23:43;9.60;99.90
7842;DHT22;3966;51.052;13.820;2023-04-25T01:26:10;9.60;99.90
7842;DHT22;3966;51.052;13.820;2023-04-25T01:28:36;9.50;99.90
7842;DHT22;3966;51.052;13.820;2023-04-25T01:31:03;9.40;99.90
7842;DHT22;3966;51.052;13.820;2023-04-25T01:33:29;9.40;99.90
7842;DHT22;3966;51.052;13.820;2023-04-25T01:35:55;9.40;99.90
7842;DHT22;3966;51.052;13.820;2023-04-25T01:38:20;9.30;99.90
7842;DHT22;3966;51.052;13.820;2023-04-25T01:40:46;9.40;99.90
7842;DHT22;3966;51.052;13.820;2023-04-25T01:43:14;9.40;99.90
7842;DHT22;3966;51.052;13.820;2023-04-25T01:45:40;9.30;99.90
7842;DHT22;3966;51.052;13.820;2023-04-25T01:48:11;9.30;99.90
7842;DHT22;3966;51.052;13.820;2023-04-25T01:50:39;9.30;99.90
7842;DHT22;3966;51.052;13.820;2023-04-25T01:53:05;9.30;99.90
7842;DHT22;3966;51.052;13.820;2023-04-25T01:55:30;9.40;99.90
7842;DHT22;3966;51.052;13.820;2023-04-25T01:57:56;9.30;99.90
7842;DHT22;3966;51.052;13.820;2023-04-25T02:00:22;9.20;99.90
7842;DHT22;3966;51.052;13.820;2023-04-25T02:02:48;9.20;99.90
7842;DHT22;3966;51.052;13.820;2023-04-25T02:05:16;9.20;99.90
7842;DHT22;3966;51.052;13.820;2023-04-25T02:07:42;9.10;99.90
7842;DHT22;3966;51.052;13.820;2023-04-25T02:10:08;9.10;99.90
7842;DHT22;3966;51.052;13.820;2023-04-25T02:12:35;9.10;99.90
7842;DHT22;3966;51.052;13.820;2023-04-25T02:15:01;9.10;99.90
7842;DHT22;3966;51.052;13.820;2023-04-25T02:17:26;8.90;99.90
7842;DHT22;3966;51.052;13.820;2023-04-25T02:19:52;8.90;99.90
7842;DHT22;3966;51.052;13.820;2023-04-25T02:22:18;8.90;99.90
7842;DHT22;3966;51.052;13.820;2023-04-25T02:24:44;8.90;99.90
7842;DHT22;3966;51.052;13.820;2023-04-25T02:27:09;8.90;99.90
7842;DHT22;3966;51.052;13.820;2023-04-25T02:29:35;8.90;99.90
7842;DHT22;3966;51.052;13.820;2023-04-25T02:32:01;8.80;99.90
7842;DHT22;3966;51.052;13.820;2023-04-25T02:34:26;8.80;99.90
7842;DHT22;3966;51.052;13.820;2023-04-25T02:36:52;8.80;99.90
7842;DHT22;3966;51.052;13.820;2023-04-25T02:39:18;8.80;99.90
7842;DHT22;3966;51.052;13.820;2023-04-25T02:41:44;8.70;99.90
7842;DHT22;3966;51.052;13.820;2023-04-25T02:44:10;8.60;99.90
7842;DHT22;3966;51.052;13.820;2023-04-25T02:46:35;8.60;99.90
7842;DHT22;3966;51.052;13.820;2023-04-25T02:49:01;8.60;99.90
7842;DHT22;3966;51.052;13.820;2023-04-25T02:51:26;8.60;99.90
7842;DHT22;3966;51.052;13.820;2023-04-25T02:53:52;8.50;99.90
7842;DHT22;3966;51.052;13.820;2023-04-25T02:56:18;8.40;99.90
7842;DHT22;3966;51.052;13.820;2023-04-25T02:58:43;8.40;99.90
7842;DHT22;3966;51.052;13.820;2023-04-25T03:01:09;8.40;99.90
7842;DHT22;3966;51.052;13.820;2023-04-25T03:03:35;8.30;99.90
7842;DHT22;3966;51.052;13.820;2023-04-25T03:06:01;8.30;99.90
7842;DHT22;3966;51.052;13.820;2023-04-25T03:08:26;8.30;99.90
7842;DHT22;3966;51.052;13.820;2023-04-25T03:10:57;8.30;99.90
7842;DHT22;3966;51.052;13.820;2023-04-25T03:13:24;8.30;99.90
7842;DHT22;3966;51.052;13.820;2023-04-25T03:15:49;8.30;99.90
7842;DHT22;3966;51.052;13.820;2023-04-25T03:18:15;8.30;99.90
7842;DHT22;3966;51.052;13.820;2023-04-25T03:20:41;8.20;99.90
7842;DHT22;3966;51.052;13.820;2023-04-25T03:23:07;8.10;99.90
7842;DHT22;3966;51.052;13.820;2023-04-25T03:25:33;8.10;99.90
7842;DHT22;3966;51.052;13.820;2023-04-25T03:27:58;8.00;99.90
7842;DHT22;3966;51.052;13.820;2023-04-25T03:30:24;7.90;99.90
7842;DHT22;3966;51.052;13.820;2023-04-25T03:32:50;7.80;99.90
7842;DHT22;3966;51.052;13.820;2023-04-25T03:35:16;7.80;99.90
7842;DHT22;3966;51.052;13.820;2023-04-25T03:37:41;7.80;99.90
7842;DHT22;3966;51.052;13.820;2023-04-25T03:40:11;7.80;99.90
7842;DHT22;3966;51.052;13.820;2023-04-25T03:42:36;7.70;99.90
7842;DHT22;3966;51.052;13.820;2023-04-25T03:45:02;7.70;99.90
7842;DHT22;3966;51.052;13.820;2023-04-25T03:47:28;7.60;99.90
7842;DHT22;3966;51.052;13.820;2023-04-25T03:49:54;7.50;99.90
7842;DHT22;3966;51.052;13.820;2023-04-25T03:52:20;7.50;99.90
7842;DHT22;3966;51.052;13.820;2023-04-25T03:54:45;7.50;99.90
7842;DHT22;3966;51.052;13.820;2023-04-25T03:57:11;7.50;99.90
7842;DHT22;3966;51.052;13.820;2023-04-25T03:59:37;7.50;99.90
7842;DHT22;3966;51.052;13.820;2023-04-25T04:02:02;7.50;99.90
7842;DHT22;3966;51.052;13.820;2023-04-25T04:04:28;7.60;99.90
7842;DHT22;3966;51.052;13.820;2023-04-25T04:06:54;7.60;99.90
7842;DHT22;3966;51.052;13.820;2023-04-25T04:09:19;7.50;99.90
7842;DHT22;3966;51.052;13.820;2023-04-25T04:11:46;7.50;99.90
7842;DHT22;3966;51.052;13.820;2023-04-25T04:14:11;7.60;99.90
7842;DHT22;3966;51.052;13.820;2023-04-25T04:16:37;7.60;99.90
7842;DHT22;3966;51.052;13.820;2023-04-25T04:19:03;7.50;99.90
7842;DHT22;3966;51.052;13.820;2023-04-25T04:21:28;7.50;99.90
7842;DHT22;3966;51.052;13.820;2023-04-25T04:23:55;7.50;99.90
7842;DHT22;3966;51.052;13.820;2023-04-25T04:26:23;7.50;99.90
7842;DHT22;3966;51.052;13.820;2023-04-25T04:28:52;7.40;99.90
7842;DHT22;3966;51.052;13.820;2023-04-25T04:31:20;7.50;99.90
7842;DHT22;3966;51.052;13.820;2023-04-25T04:33:47;7.60;99.90
7842;DHT22;3966;51.052;13.820;2023-04-25T04:36:16;7.70;99.90
7842;DHT22;3966;51.052;13.820;2023-04-25T04:38:49;7.70;99.90
7842;DHT22;3966;51.052;13.820;2023-04-25T04:41:16;7.70;99.90
7842;DHT22;3966;51.052;13.820;2023-04-25T04:43:43;7.70;99.90
7842;DHT22;3966;51.052;13.820;2023-04-25T04:46:11;7.80;99.90
7842;DHT22;3966;51.052;13.820;2023-04-25T04:48:38;7.70;99.90
7842;DHT22;3966;51.052;13.820;2023-04-25T04:51:06;7.70;99.90
7842;DHT22;3966;51.052;13.820;2023-04-25T04:53:32;7.80;99.90
7842;DHT22;3966;51.052;13.820;2023-04-25T04:55:58;7.80;99.90
7842;DHT22;3966;51.052;13.820;2023-04-25T04:58:23;7.80;99.90
7842;DHT22;3966;51.052;13.820;2023-04-25T05:00:49;7.80;99.90
7842;DHT22;3966;51.052;13.820;2023-04-25T05:03:15;7.80;99.90
7842;DHT22;3966;51.052;13.820;2023-04-25T05:05:41;7.90;99.90
7842;DHT22;3966;51.052;13.820;2023-04-25T05:08:07;7.90;99.90
7842;DHT22;3966;51.052;13.820;2023-04-25T05:10:33;7.90;99.90
7842;DHT22;3966;51.052;13.820;2023-04-25T05:12:58;7.90;99.90
7842;DHT22;3966;51.052;13.820;2023-04-25T05:15:24;7.90;99.90
7842;DHT22;3966;51.052;13.820;2023-04-25T05:17:50;8.00;99.90
7842;DHT22;3966;51.052;13.820;2023-04-25T05:20:15;8.00;99.90
7842;DHT22;3966;51.052;13.820;2023-04-25T05:22:41;8.00;99.90
7842;DHT22;3966;51.052;13.820;2023-04-25T05:25:08;8.00;99.90
7842;DHT22;3966;51.052;13.820;2023-04-25T05:27:34;8.10;99.90
7842;DHT22;3966;51.052;13.820;2023-04-25T05:30:00;8.10;99.90
7842;DHT22;3966;51.052;13.820;2023-04-25T05:32:26;8.20;99.90
7842;DHT22;3966;51.052;13.820;2023-04-25T05:34:52;8.10;99.90
7842;DHT22;3966;51.052;13.820;2023-04-25T05:37:17;8.10;99.90
7842;DHT22;3966;51.052;13.820;2023-04-25T05:39:43;8.20;99.90
7842;DHT22;3966;51.052;13.820;2023-04-25T05:42:09;8.30;99.90
7842;DHT22;3966;51.052;13.820;2023-04-25T05:44:34;8.20;99.90
7842;DHT22;3966;51.052;13.820;2023-04-25T05:47:00;8.20;99.90
7842;DHT22;3966;51.052;13.820;2023-04-25T05:49:26;8.20;99.90
7842;DHT22;3966;51.052;13.820;2023-04-25T05:54:18;8.30;99.90
7842;DHT22;3966;51.052;13.820;2023-04-25T05:56:43;8.30;99.90
7842;DHT22;3966;51.052;13.820;2023-04-25T05:59:09;8.40;99.90
7842;DHT22;3966;51.052;13.820;2023-04-25T06:01:35;8.40;99.90
7842;DHT22;3966;51.052;13.820;2023-04-25T06:04:01;8.50;99.90
7842;DHT22;3966;51.052;13.820;2023-04-25T06:06:26;8.60;99.90
7842;DHT22;3966;51.052;13.820;2023-04-25T06:08:52;8.50;99.90
7842;DHT22;3966;51.052;13.820;2023-04-25T06:11:18;8.60;99.90
7842;DHT22;3966;51.052;13.820;2023-04-25T06:13:45;8.60;99.90
7842;DHT22;3966;51.052;13.820;2023-04-25T06:16:11;8.50;99.90
7842;DHT22;3966;51.052;13.820;2023-04-25T06:18:36;8.60;99.90
7842;DHT22;3966;51.052;13.820;2023-04-25T06:21:02;8.60;99.90
7842;DHT22;3966;51.052;13.820;2023-04-25T06:23:28;8.60;99.90
7842;DHT22;3966;51.052;13.820;2023-04-25T06:25:53;8.60;99.90
7842;DHT22;3966;51.052;13.820;2023-04-25T06:28:19;8.70;99.90
7842;DHT22;3966;51.052;13.820;2023-04-25T06:30:44;8.70;99.90
7842;DHT22;3966;51.052;13.820;2023-04-25T06:33:12;8.90;99.90
7842;DHT22;3966;51.052;13.820;2023-04-25T06:35:37;8.90;99.90
7842;DHT22;3966;51.052;13.820;2023-04-25T06:38:03;8.90;99.90
7842;DHT22;3966;51.052;13.820;2023-04-25T06:40:29;8.90;99.90
7842;DHT22;3966;51.052;13.820;2023-04-25T06:42:54;9.00;99.90
7842;DHT22;3966;51.052;13.820;2023-04-25T06:45:20;9.10;99.90
7842;DHT22;3966;51.052;13.820;2023-04-25T06:47:46;9.10;99.90
7842;DHT22;3966;51.052;13.820;2023-04-25T06:50:11;9.10;99.90
7842;DHT22;3966;51.052;13.820;2023-04-25T06:52:37;9.10;99.90
7842;DHT22;3966;51.052;13.820;2023-04-25T06:55:03;9.10;99.90
7842;DHT22;3966;51.052;13.820;2023-04-25T06:57:30;9.10;99.90
7842;DHT22;3966;51.052;13.820;2023-04-25T06:59:55;9.10;99.90
7842;DHT22;3966;51.052;13.820;2023-04-25T07:02:21;9.20;99.90
7842;DHT22;3966;51.052;13.820;2023-04-25T07:04:47;9.30;99.90
7842;DHT22;3966;51.052;13.820;2023-04-25T07:07:13;9.20;99.90
7842;DHT22;3966;51.052;13.820;2023-04-25T07:09:39;9.40;99.90
7842;DHT22;3966;51.052;13.820;2023-04-25T07:12:04;9.40;99.90
7842;DHT22;3966;51.052;13.820;2023-04-25T07:14:30;9.60;99.90
7842;DHT22;3966;51.052;13.820;2023-04-25T07:16:56;9.70;99.90
7842;DHT22;3966;51.052;13.820;2023-04-25T07:19:22;9.50;99.90
7842;DHT22;3966;51.052;13.820;2023-04-25T07:21:52;9.50;99.90
7842;DHT22;3966;51.052;13.820;2023-04-25T07:24:17;9.70;99.90
7842;DHT22;3966;51.052;13.820;2023-04-25T07:26:43;9.80;99.90
7842;DHT22;3966;51.052;13.820;2023-04-25T07:29:09;9.80;99.90
7842;DHT22;3966;51.052;13.820;2023-04-25T07:31:35;9.70;99.90
7842;DHT22;3966;51.052;13.820;2023-04-25T07:34:01;9.70;99.90
7842;DHT22;3966;51.052;13.820;2023-04-25T07:36:26;9.60;99.90
7842;DHT22;3966;51.052;13.820;2023-04-25T07:38:52;9.60;99.90
7842;DHT22;3966;51.052;13.820;2023-04-25T07:41:18;9.70;99.90
7842;DHT22;3966;51.052;13.820;2023-04-25T07:43:44;9.70;99.90
7842;DHT22;3966;51.052;13.820;2023-04-25T07:46:10;10.00;99.90
7842;DHT22;3966;51.052;13.820;2023-04-25T07:48:36;9.90;99.90
7842;DHT22;3966;51.052;13.820;2023-04-25T07:51:01;10.10;99.90
7842;DHT22;3966;51.052;13.820;2023-04-25T07:53:28;9.90;99.90
7842;DHT22;3966;51.052;13.820;2023-04-25T07:55:53;9.90;99.90
7842;DHT22;3966;51.052;13.820;2023-04-25T07:58:19;9.90;99.90
7842;DHT22;3966;51.052;13.820;2023-04-25T08:00:47;10.00;99.90
7842;DHT22;3966;51.052;13.820;2023-04-25T08:03:13;9.90;99.90
7842;DHT22;3966;51.052;13.820;2023-04-25T08:05:39;10.00;99.90
7842;DHT22;3966;51.052;13.820;2023-04-25T08:08:05;10.20;99.90
7842;DHT22;3966;51.052;13.820;2023-04-25T08:10:32;10.50;99.90
7842;DHT22;3966;51.052;13.820;2023-04-25T08:12:58;10.60;99.90
7842;DHT22;3966;51.052;13.820;2023-04-25T08:15:24;10.60;99.90
7842;DHT22;3966;51.052;13.820;2023-04-25T08:17:50;10.80;99.90
7842;DHT22;3966;51.052;13.820;2023-04-25T08:20:16;10.70;99.90
7842;DHT22;3966;51.052;13.820;2023-04-25T08:22:42;10.70;99.90
7842;DHT22;3966;51.052;13.820;2023-04-25T08:25:08;10.60;99.90
7842;DHT22;3966;51.052;13.820;2023-04-25T08:27:33;10.50;99.90
7842;DHT22;3966;51.052;13.820;2023-04-25T08:30:00;10.60;99.90
7842;DHT22;3966;51.052;13.820;2023-04-25T08:32:26;10.60;99.90
7842;DHT22;3966;51.052;13.820;2023-04-25T08:34:52;10.30;99.90
7842;DHT22;3966;51.052;13.820;2023-04-25T08:37:19;10.20;99.90
7842;DHT22;3966;51.052;13.820;2023-04-25T08:39:46;10.10;99.90
7842;DHT22;3966;51.052;13.820;2023-04-25T08:42:14;10.30;99.90
7842;DHT22;3966;51.052;13.820;2023-04-25T08:44:40;10.50;99.90
7842;DHT22;3966;51.052;13.820;2023-04-25T08:47:06;10.40;99.90
7842;DHT22;3966;51.052;13.820;2023-04-25T08:49:32;10.40;99.90
7842;DHT22;3966;51.052;13.820;2023-04-25T08:52:04;10.40;99.90
7842;DHT22;3966;51.052;13.820;2023-04-25T08:54:32;10.30;99.90
7842;DHT22;3966;51.052;13.820;2023-04-25T08:57:01;10.20;99.90
7842;DHT22;3966;51.052;13.820;2023-04-25T08:59:28;10.40;99.90
7842;DHT22;3966;51.052;13.820;2023-04-25T09:01:53;10.10;99.90
7842;DHT22;3966;51.052;13.820;2023-04-25T09:04:19;10.20;99.90
7842;DHT22;3966;51.052;13.820;2023-04-25T09:06:46;10.30;99.90
7842;DHT22;3966;51.052;13.820;2023-04-25T09:09:12;10.30;99.90
7842;DHT22;3966;51.052;13.820;2023-04-25T09:11:38;10.40;99.90
7842;DHT22;3966;51.052;13.820;2023-04-25T09:14:20;10.50;99.90
7842;DHT22;3966;51.052;13.820;2023-04-25T09:21:57;10.60;99.90
7842;DHT22;3966;51.052;13.820;2023-04-25T09:24:40;10.50;99.90
7842;DHT22;3966;51.052;13.820;2023-04-25T09:27:11;10.60;99.90
7842;DHT22;3966;51.052;13.820;2023-04-25T09:29:39;10.60;99.90
7842;DHT22;3966;51.052;13.820;2023-04-25T09:32:13;10.40;99.90
7842;DHT22;3966;51.052;13.820;2023-04-25T09:34:40;10.50;99.90
7842;DHT22;3966;51.052;13.820;2023-04-25T09:37:08;10.60;99.90
7842;DHT22;3966;51.052;13.820;2023-04-25T09:39:34;10.60;99.90
7842;DHT22;3966;51.052;13.820;2023-04-25T09:42:00;10.40;99.90
7842;DHT22;3966;51.052;13.820;2023-04-25T09:44:26;10.50;99.90
7842;DHT22;3966;51.052;13.820;2023-04-25T09:46:52;10.40;99.90
7842;DHT22;3966;51.052;13.820;2023-04-25T09:49:20;10.30;99.90
7842;DHT22;3966;51.052;13.820;2023-04-25T09:51:57;10.30;99.90
7842;DHT22;3966;51.052;13.820;2023-04-25T09:54:27;9.90;99.90
7842;DHT22;3966;51.052;13.820;2023-04-25T09:56:53;9.80;99.90
7842;DHT22;3966;51.052;13.820;2023-04-25T09:59:22;9.70;99.90
7842;DHT22;3966;51.052;13.820;2023-04-25T10:01:49;9.80;99.90
7842;DHT22;3966;51.052;13.820;2023-04-25T10:04:19;9.80;99.90
7842;DHT22;3966;51.052;13.820;2023-04-25T10:06:48;9.70;99.90
7842;DHT22;3966;51.052;13.820;2023-04-25T10:09:15;9.80;99.90
7842;DHT22;3966;51.052;13.820;2023-04-25T10:11:41;9.80;99.90
7842;DHT22;3966;51.052;13.820;2023-04-25T10:14:07;9.80;99.90
7842;DHT22;3966;51.052;13.820;2023-04-25T10:16:33;9.90;99.90
7842;DHT22;3966;51.052;13.820;2023-04-25T10:18:59;10.00;99.90
7842;DHT22;3966;51.052;13.820;2023-04-25T10:21:26;10.20;99.90
7842;DHT22;3966;51.052;13.820;2023-04-25T10:23:54;10.40;99.90
7842;DHT22;3966;51.052;13.820;2023-04-25T10:26:20;10.40;99.90
7842;DHT22;3966;51.052;13.820;2023-04-25T10:28:58;10.60;99.90
7842;DHT22;3966;51.052;13.820;2023-04-25T10:31:25;10.70;99.90
7842;DHT22;3966;51.052;13.820;2023-04-25T10:33:51;10.70;99.90
7842;DHT22;3966;51.052;13.820;2023-04-25T10:36:24;10.30;99.90
7842;DHT22;3966;51.052;13.820;2023-04-25T10:38:54;10.40;99.90
7842;DHT22;3966;51.052;13.820;2023-04-25T10:41:20;10.40;99.90
7842;DHT22;3966;51.052;13.820;2023-04-25T10:43:47;10.50;99.90
7842;DHT22;3966;51.052;13.820;2023-04-25T10:46:28;10.60;99.90
7842;DHT22;3966;51.052;13.820;2023-04-25T10:51:33;10.80;99.90
7842;DHT22;3966;51.052;13.820;2023-04-25T10:54:04;10.60;99.90
7842;DHT22;3966;51.052;13.820;2023-04-25T10:56:48;10.30;99.90
7842;DHT22;3966;51.052;13.820;2023-04-25T10:59:18;10.50;99.90
7842;DHT22;3966;51.052;13.820;2023-04-25T11:01:47;10.20;99.90
7842;DHT22;3966;51.052;13.820;2023-04-25T11:04:21;10.10;99.90
7842;DHT22;3966;51.052;13.820;2023-04-25T11:09:24;9.90;99.90
7842;DHT22;3966;51.052;13.820;2023-04-25T11:11:59;9.90;99.90
7842;DHT22;3966;51.052;13.820;2023-04-25T11:14:26;9.90;99.90
7842;DHT22;3966;51.052;13.820;2023-04-25T11:16:56;9.90;99.90
7842;DHT22;3966;51.052;13.820;2023-04-25T11:19:23;9.90;99.90
7842;DHT22;3966;51.052;13.820;2023-04-25T11:21:48;9.60;99.90
7842;DHT22;3966;51.052;13.820;2023-04-25T11:24:16;9.50;99.90
7842;DHT22;3966;51.052;13.820;2023-04-25T11:26:42;9.40;99.90
7842;DHT22;3966;51.052;13.820;2023-04-25T11:29:08;9.60;99.90
7842;DHT22;3966;51.052;13.820;2023-04-25T11:31:34;9.80;99.90
7842;DHT22;3966;51.052;13.820;2023-04-25T11:34:00;9.90;99.90
7842;DHT22;3966;51.052;13.820;2023-04-25T11:36:26;9.70;99.90
7842;DHT22;3966;51.052;13.820;2023-04-25T11:38:53;9.80;99.90
7842;DHT22;3966;51.052;13.820;2023-04-25T11:41:22;9.60;99.90
7842;DHT22;3966;51.052;13.820;2023-04-25T11:43:48;9.90;99.90
7842;DHT22;3966;51.052;13.820;2023-04-25T11:46:15;10.00;99.90
7842;DHT22;3966;51.052;13.820;2023-04-25T11:48:41;9.90;99.90
7842;DHT22;3966;51.052;13.820;2023-04-25T11:51:08;9.70;99.90
7842;DHT22;3966;51.052;13.820;2023-04-25T11:53:34;9.90;99.90
7842;DHT22;3966;51.052;13.820;2023-04-25T11:56:00;10.00;99.90
7842;DHT22;3966;51.052;13.820;2023-04-25T11:58:27;9.90;99.90
7842;DHT22;3966;51.052;13.820;2023-04-25T12:00:53;9.90;99.90
7842;DHT22;3966;51.052;13.820;2023-04-25T12:03:19;9.90;99.90
7842;DHT22;3966;51.052;13.820;2023-04-25T12:05:45;10.20;99.90
7842;DHT22;3966;51.052;13.820;2023-04-25T12:08:16;10.30;99.90
7842;DHT22;3966;51.052;13.820;2023-04-25T12:10:45;10.30;99.90
7842;DHT22;3966;51.052;13.820;2023-04-25T12:15:47;10.40;99.90
7842;DHT22;3966;51.052;13.820;2023-04-25T12:18:13;10.40;99.90
7842;DHT22;3966;51.052;13.820;2023-04-25T12:20:39;10.10;99.90
7842;DHT22;3966;51.052;13.820;2023-04-25T12:23:08;10.10;99.90
7842;DHT22;3966;51.052;13.820;2023-04-25T12:25:44;10.00;99.90
7842;DHT22;3966;51.052;13.820;2023-04-25T12:31:04;10.10;99.90
7842;DHT22;3966;51.052;13.820;2023-04-25T12:33:35;10.20;99.90
7842;DHT22;3966;51.052;13.820;2023-04-25T12:36:02;10.00;99.90
7842;DHT22;3966;51.052;13.820;2023-04-25T12:38:38;10.00;99.90
7842;DHT22;3966;51.052;13.820;2023-04-25T12:41:04;10.20;99.90
7842;DHT22;3966;51.052;13.820;2023-04-25T12:43:30;10.10;99.90
7842;DHT22;3966;51.052;13.820;2023-04-25T12:45:56;10.00;99.90
7842;DHT22;3966;51.052;13.820;2023-04-25T12:48:22;10.30;99.90
7842;DHT22;3966;51.052;13.820;2023-04-25T12:50:49;10.50;99.90
7842;DHT22;3966;51.052;13.820;2023-04-25T12:53:21;10.70;99.90
7842;DHT22;3966;51.052;13.820;2023-04-25T12:55:47;11.00;99.90
7842;DHT22;3966;51.052;13.820;2023-04-25T12:58:17;11.20;99.90
7842;DHT22;3966;51.052;13.820;2023-04-25T13:00:44;11.10;99.90
7842;DHT22;3966;51.052;13.820;2023-04-25T13:03:10;11.10;99.90
7842;DHT22;3966;51.052;13.820;2023-04-25T13:05:39;10.90;99.90
7842;DHT22;3966;51.052;13.820;2023-04-25T13:08:05;10.60;99.90
7842;DHT22;3966;51.052;13.820;2023-04-25T13:10:30;10.50;99.90
7842;DHT22;3966;51.052;13.820;2023-04-25T13:12:56;10.60;99.90
7842;DHT22;3966;51.052;13.820;2023-04-25T13:15:22;10.60;99.90
7842;DHT22;3966;51.052;13.820;2023-04-25T13:17:48;10.50;99.90
7842;DHT22;3966;51.052;13.820;2023-04-25T13:20:14;10.40;99.90
7842;DHT22;3966;51.052;13.820;2023-04-25T13:22:41;10.50;99.90
7842;DHT22;3966;51.052;13.820;2023-04-25T13:25:07;10.40;99.90
7842;DHT22;3966;51.052;13.820;2023-04-25T13:27:34;10.20;99.90
7842;DHT22;3966;51.052;13.820;2023-04-25T13:30:03;10.10;99.90
7842;DHT22;3966;51.052;13.820;2023-04-25T13:32:36;10.10;99.90
7842;DHT22;3966;51.052;13.820;2023-04-25T13:35:03;10.00;99.90
7842;DHT22;3966;51.052;13.820;2023-04-25T13:37:30;9.90;99.90
7842;DHT22;3966;51.052;13.820;2023-04-25T13:40:00;9.80;99.90
7842;DHT22;3966;51.052;13.820;2023-04-25T13:42:27;9.80;99.90
7842;DHT22;3966;51.052;13.820;2023-04-25T13:44:53;9.70;99.90
7842;DHT22;3966;51.052;13.820;2023-04-25T13:47:19;9.50;99.90
7842;DHT22;3966;51.052;13.820;2023-04-25T13:49:45;9.50;99.90
7842;DHT22;3966;51.052;13.820;2023-04-25T13:52:10;9.50;99.90
7842;DHT22;3966;51.052;13.820;2023-04-25T13:54:36;9.50;99.90
7842;DHT22;3966;51.052;13.820;2023-04-25T13:57:01;9.50;99.90
7842;DHT22;3966;51.052;13.820;2023-04-25T13:59:27;9.50;99.90
7842;DHT22;3966;51.052;13.820;2023-04-25T14:01:53;9.50;99.90
7842;DHT22;3966;51.052;13.820;2023-04-25T14:04:18;9.50;99.90
7842;DHT22;3966;51.052;13.820;2023-04-25T14:06:44;9.50;99.90
7842;DHT22;3966;51.052;13.820;2023-04-25T14:09:11;9.50;99.90
7842;DHT22;3966;51.052;13.820;2023-04-25T14:11:38;9.40;99.90
7842;DHT22;3966;51.052;13.820;2023-04-25T14:14:04;9.40;99.90
7842;DHT22;3966;51.052;13.820;2023-04-25T14:16:30;9.40;99.90
7842;DHT22;3966;51.052;13.820;2023-04-25T14:18:58;9.50;99.90
7842;DHT22;3966;51.052;13.820;2023-04-25T14:21:24;9.60;99.90
7842;DHT22;3966;51.052;13.820;2023-04-25T14:23:50;9.70;99.90
7842;DHT22;3966;51.052;13.820;2023-04-25T14:26:16;9.70;99.90
7842;DHT22;3966;51.052;13.820;2023-04-25T14:28:42;9.70;99.90
7842;DHT22;3966;51.052;13.820;2023-04-25T14:31:08;9.60;99.90
7842;DHT22;3966;51.052;13.820;2023-04-25T14:33:33;9.70;99.90
7842;DHT22;3966;51.052;13.820;2023-04-25T14:36:00;9.80;99.90
7842;DHT22;3966;51.052;13.820;2023-04-25T14:38:25;9.90;99.90
7842;DHT22;3966;51.052;13.820;2023-04-25T14:40:52;10.40;99.90
7842;DHT22;3966;51.052;13.820;2023-04-25T14:43:19;10.80;99.90
7842;DHT22;3966;51.052;13.820;2023-04-25T14:45:45;10.60;99.90
7842;DHT22;3966;51.052;13.820;2023-04-25T14:48:10;10.70;99.90
7842;DHT22;3966;51.052;13.820;2023-04-25T14:50:36;11.20;99.90
7842;DHT22;3966;51.052;13.820;2023-04-25T14:53:02;11.70;99.90
7842;DHT22;3966;51.052;13.820;2023-04-25T14:55:28;11.60;99.90
7842;DHT22;3966;51.052;13.820;2023-04-25T14:57:54;11.30;99.90
7842;DHT22;3966;51.052;13.820;2023-04-25T15:00:27;10.90;99.90
7842;DHT22;3966;51.052;13.820;2023-04-25T15:02:54;10.60;99.90
7842;DHT22;3966;51.052;13.820;2023-04-25T15:05:35;10.50;99.90
7842;DHT22;3966;51.052;13.820;2023-04-25T15:08:02;10.60;99.90
7842;DHT22;3966;51.052;13.820;2023-04-25T15:10:31;10.80;99.90
7842;DHT22;3966;51.052;13.820;2023-04-25T15:12:57;10.70;99.90
7842;DHT22;3966;51.052;13.820;2023-04-25T15:15:24;10.60;99.90
7842;DHT22;3966;51.052;13.820;2023-04-25T15:17:50;10.40;99.90
7842;DHT22;3966;51.052;13.820;2023-04-25T15:20:17;10.20;99.90
7842;DHT22;3966;51.052;13.820;2023-04-25T15:22:46;10.20;99.90
7842;DHT22;3966;51.052;13.820;2023-04-25T15:25:15;10.30;99.90
7842;DHT22;3966;51.052;13.820;2023-04-25T15:27:44;10.40;99.90
7842;DHT22;3966;51.052;13.820;2023-04-25T15:30:14;10.40;99.90
7842;DHT22;3966;51.052;13.820;2023-04-25T15:32:45;10.30;99.90
7842;DHT22;3966;51.052;13.820;2023-04-25T15:35:12;10.30;99.90
7842;DHT22;3966;51.052;13.820;2023-04-25T15:37:39;10.10;99.90
7842;DHT22;3966;51.052;13.820;2023-04-25T15:40:14;10.00;99.90
7842;DHT22;3966;51.052;13.820;2023-04-25T15:42:49;9.90;99.90
7842;DHT22;3966;51.052;13.820;2023-04-25T15:45:41;9.90;99.90
7842;DHT22;3966;51.052;13.820;2023-04-25T15:48:07;9.80;99.90
7842;DHT22;3966;51.052;13.820;2023-04-25T15:50:33;9.80;99.90
7842;DHT22;3966;51.052;13.820;2023-04-25T15:53:00;9.70;99.90
7842;DHT22;3966;51.052;13.820;2023-04-25T15:55:26;9.80;99.90
7842;DHT22;3966;51.052;13.820;2023-04-25T15:57:52;9.80;99.90
7842;DHT22;3966;51.052;13.820;2023-04-25T16:00:18;9.80;99.90
7842;DHT22;3966;51.052;13.820;2023-04-25T16:02:45;9.80;99.90
7842;DHT22;3966;51.052;13.820;2023-04-25T16:05:13;9.60;99.90
7842;DHT22;3966;51.052;13.820;2023-04-25T16:07:41;9.70;99.90
7842;DHT22;3966;51.052;13.820;2023-04-25T16:10:10;9.80;99.90